createdAt,value
2023-02-13T00:01:29.023Z,5.82
2023-02-13T00:03:58.621Z,5.81
2023-02-13T00:06:28.082Z,5.80
2023-02-13T00:08:57.817Z,5.81
2023-02-13T00:11:27.242Z,5.80
2023-02-13T00:13:56.458Z,5.81
2023-02-13T00:16:25.799Z,5.76
2023-02-13T00:18:55.021Z,5.78
2023-02-13T00:21:24.274Z,5.77
2023-02-13T00:23:53.507Z,5.85
2023-02-13T00:26:22.761Z,5.82
2023-02-13T00:28:52.496Z,5.84
2023-02-13T00:31:23.030Z,5.82
2023-02-13T00:33:52.444Z,5.77
2023-02-13T00:36:23.390Z,5.73
2023-02-13T00:38:53.958Z,5.79
2023-02-13T00:41:23.645Z,5.78
2023-02-13T00:43:53.421Z,5.81
2023-02-13T00:46:22.805Z,5.79
2023-02-13T00:48:53.375Z,5.79
2023-02-13T00:51:22.624Z,5.74
2023-02-13T00:53:52.838Z,5.69
2023-02-13T00:56:22.097Z,5.67
2023-02-13T00:58:51.597Z,5.68
2023-02-13T01:01:21.077Z,5.69
2023-02-13T01:03:50.393Z,5.73
2023-02-13T01:06:19.755Z,5.71
2023-02-13T01:08:49.063Z,5.72
2023-02-13T01:11:19.315Z,5.74
2023-02-13T01:13:48.689Z,5.72
2023-02-13T01:16:20.039Z,5.73
2023-02-13T01:18:49.657Z,5.76
2023-02-13T01:21:21.449Z,5.75
2023-02-13T01:23:51.600Z,5.74
2023-02-13T01:26:24.129Z,5.73
2023-02-13T01:28:54.908Z,5.75
2023-02-13T01:31:24.479Z,5.73
2023-02-13T01:33:55.885Z,5.74
2023-02-13T01:36:25.558Z,5.73
2023-02-13T01:38:58.033Z,5.68
2023-02-13T01:41:28.997Z,5.64
2023-02-13T01:44:00.771Z,5.62
2023-02-13T01:46:42.853Z,5.69
2023-02-13T01:49:15.397Z,5.66
2023-02-13T01:51:45.013Z,5.69
2023-02-13T01:54:20.270Z,5.67
2023-02-13T01:56:52.924Z,5.72
2023-02-13T01:59:27.968Z,5.72
2023-02-13T02:01:57.966Z,5.75
2023-02-13T02:04:33.817Z,5.69
2023-02-13T02:07:08.101Z,5.69
2023-02-13T02:09:40.863Z,5.66
2023-02-13T02:12:23.224Z,5.70
2023-02-13T02:14:54.678Z,5.69
2023-02-13T02:17:26.116Z,5.66
2023-02-13T02:20:07.310Z,5.68
2023-02-13T02:22:56.364Z,5.65
2023-02-13T02:25:49.730Z,5.64
2023-02-13T02:28:31.286Z,5.62
2023-02-13T02:31:22.115Z,5.60
2023-02-13T02:34:09.793Z,5.61
2023-02-13T02:36:49.065Z,5.59
2023-02-13T02:39:23.583Z,5.57
2023-02-13T02:41:57.224Z,5.67
2023-02-13T02:44:36.120Z,5.68
2023-02-13T02:47:28.217Z,5.64
2023-02-13T02:50:02.248Z,5.60
2023-02-13T02:53:02.493Z,5.58
2023-02-13T02:55:47.727Z,5.59
2023-02-13T02:58:41.499Z,5.58
2023-02-13T03:01:33.070Z,5.60
2023-02-13T03:04:21.552Z,5.59
2023-02-13T03:06:56.928Z,5.63
2023-02-13T03:09:47.919Z,5.57
2023-02-13T03:12:37.938Z,5.55
2023-02-13T03:15:07.869Z,5.56
2023-02-13T03:17:55.581Z,5.62
2023-02-13T03:20:55.578Z,5.59
2023-02-13T03:23:28.594Z,5.52
2023-02-13T03:26:16.026Z,5.54
2023-02-13T03:29:09.212Z,5.52
2023-02-13T03:31:41.891Z,5.49
2023-02-13T03:34:20.400Z,5.44
2023-02-13T03:37:21.923Z,5.48
2023-02-13T03:40:03.348Z,5.42
2023-02-13T03:42:35.771Z,5.47
2023-02-13T03:45:35.170Z,5.43
2023-02-13T03:48:08.390Z,5.42
2023-02-13T03:50:42.699Z,5.47
2023-02-13T03:53:14.050Z,5.48
2023-02-13T03:56:04.139Z,5.49
2023-02-13T03:58:54.413Z,5.44
2023-02-13T04:01:26.964Z,5.37
2023-02-13T04:04:13.565Z,5.37
2023-02-13T04:07:01.445Z,5.37
2023-02-13T04:09:32.038Z,5.36
2023-02-13T04:12:14.265Z,5.33
2023-02-13T04:15:04.718Z,5.27
2023-02-13T04:17:43.818Z,5.23
2023-02-13T04:20:13.479Z,5.22
2023-02-13T04:22:45.050Z,5.10
2023-02-13T04:25:16.675Z,5.02
2023-02-13T04:27:45.917Z,4.91
2023-02-13T04:30:16.012Z,4.79
2023-02-13T04:32:45.302Z,4.65
2023-02-13T04:35:15.057Z,4.55
2023-02-13T04:37:44.323Z,4.43
2023-02-13T04:40:14.203Z,4.41
2023-02-13T04:42:43.486Z,4.32
2023-02-13T04:45:13.127Z,4.19
2023-02-13T04:47:42.754Z,4.08
2023-02-13T04:50:12.058Z,3.96
2023-02-13T04:52:41.590Z,3.89
2023-02-13T04:55:11.147Z,3.88
2023-02-13T04:57:40.626Z,3.75
2023-02-13T05:00:10.970Z,3.64
2023-02-13T05:02:40.218Z,3.64
2023-02-13T05:05:09.556Z,3.58
2023-02-13T05:07:38.859Z,3.48
2023-02-13T05:10:09.168Z,3.52
2023-02-13T05:12:38.464Z,3.41
2023-02-13T05:15:08.884Z,3.39
2023-02-13T05:17:38.115Z,3.35
2023-02-13T05:20:08.696Z,3.25
2023-02-13T05:22:56.073Z,3.20
2023-02-13T05:25:25.486Z,3.09
2023-02-13T05:27:54.996Z,2.99
2023-02-13T05:30:24.547Z,2.91
2023-02-13T05:32:55.178Z,2.88
2023-02-13T05:35:25.916Z,2.85
2023-02-13T05:37:55.240Z,2.77
2023-02-13T05:40:24.593Z,2.67
2023-02-13T05:42:55.696Z,2.64
2023-02-13T05:45:24.936Z,2.61
2023-02-13T05:47:54.155Z,2.55
2023-02-13T05:50:23.658Z,2.48
2023-02-13T05:52:52.985Z,2.39
2023-02-13T05:55:22.270Z,2.40
2023-02-13T05:57:51.573Z,2.36
2023-02-13T06:00:22.494Z,2.31
2023-02-13T06:02:52.949Z,2.27
2023-02-13T06:05:22.558Z,2.30
2023-02-13T06:07:52.181Z,2.26
2023-02-13T06:10:21.887Z,2.27
2023-02-13T06:12:51.180Z,2.26
2023-02-13T06:15:21.033Z,2.19
2023-02-13T06:17:50.345Z,2.18
2023-02-13T06:20:20.270Z,2.13
2023-02-13T06:22:51.086Z,2.00
2023-02-13T06:25:21.042Z,1.91
2023-02-13T06:27:50.575Z,1.87
2023-02-13T06:30:20.452Z,2.03
2023-02-13T06:32:50.068Z,2.08
2023-02-13T06:35:19.458Z,2.12
2023-02-13T06:37:49.067Z,2.07
2023-02-13T06:40:18.948Z,1.92
2023-02-13T06:42:48.386Z,1.89
2023-02-13T06:45:17.793Z,1.77
2023-02-13T06:47:49.354Z,1.83
2023-02-13T06:50:19.264Z,1.81
2023-02-13T06:52:50.580Z,1.96
2023-02-13T06:55:20.912Z,2.01
2023-02-13T06:57:51.035Z,1.94
2023-02-13T07:00:21.217Z,1.95
2023-02-13T07:02:50.584Z,1.88
2023-02-13T07:05:20.042Z,1.83
2023-02-13T07:07:49.280Z,1.76
2023-02-13T07:10:18.925Z,1.87
2023-02-13T07:13:03.612Z,1.85
2023-02-13T07:15:19.913Z,1.88
2023-02-13T07:17:49.132Z,1.85
2023-02-13T07:20:18.740Z,2.03
2023-02-13T07:22:48.162Z,2.15
2023-02-13T07:25:17.718Z,2.15
2023-02-13T07:27:46.928Z,2.28
2023-02-13T07:30:16.330Z,2.33
2023-02-13T07:32:45.736Z,2.28
2023-02-13T07:35:15.081Z,2.27
2023-02-13T07:37:44.547Z,2.28
2023-02-13T07:40:14.109Z,2.28
2023-02-13T07:42:43.316Z,2.39
2023-02-13T07:45:13.145Z,2.58
2023-02-13T07:47:42.795Z,2.70
2023-02-13T07:50:13.315Z,2.78
2023-02-13T07:52:42.631Z,2.85
2023-02-13T07:55:12.156Z,2.91
2023-02-13T07:57:41.623Z,2.93
2023-02-13T08:00:12.206Z,2.98
2023-02-13T08:02:43.136Z,3.09
2023-02-13T08:05:12.390Z,3.16
2023-02-13T08:07:41.813Z,3.24
2023-02-13T08:10:31.366Z,3.35
2023-02-13T08:13:00.702Z,3.39
2023-02-13T08:15:30.025Z,3.57
2023-02-13T08:17:59.218Z,3.70
2023-02-13T08:20:28.803Z,3.83
2023-02-13T08:23:01.190Z,3.88
2023-02-13T08:25:30.510Z,4.08
2023-02-13T08:28:01.038Z,4.28
2023-02-13T08:30:30.405Z,4.39
2023-02-13T08:32:59.644Z,4.56
2023-02-13T08:35:30.707Z,4.58
2023-02-13T08:38:05.027Z,4.53
2023-02-13T08:40:34.573Z,4.58
2023-02-13T08:43:05.451Z,4.55
2023-02-13T08:45:35.366Z,4.75
2023-02-13T08:48:04.702Z,4.92
2023-02-13T08:50:36.292Z,4.99
2023-02-13T08:53:05.568Z,5.18
2023-02-13T08:55:34.866Z,5.28
2023-02-13T08:58:04.824Z,5.29
2023-02-13T09:00:34.500Z,5.55
2023-02-13T09:03:04.377Z,5.91
2023-02-13T09:05:33.772Z,6.72
2023-02-13T09:08:04.005Z,7.18
2023-02-13T09:10:33.872Z,8.12
2023-02-13T09:13:03.204Z,9.46
2023-02-13T09:15:32.805Z,9.74
2023-02-13T09:18:02.118Z,10.82
2023-02-13T09:20:31.580Z,11.01
2023-02-13T09:23:00.857Z,12.27
2023-02-13T09:25:30.287Z,12.58
2023-02-13T09:28:00.856Z,13.11
2023-02-13T09:30:30.413Z,14.03
2023-02-13T09:32:59.767Z,13.52
2023-02-13T09:35:29.529Z,13.71
2023-02-13T09:38:00.399Z,14.30
2023-02-13T09:40:32.930Z,13.35
2023-02-13T09:43:19.661Z,14.01
2023-02-13T09:45:50.296Z,13.02
2023-02-13T09:48:31.580Z,13.17
2023-02-13T09:51:01.117Z,14.24
2023-02-13T09:53:32.576Z,14.30
2023-02-13T09:56:14.672Z,13.57
2023-02-13T09:58:52.439Z,13.40
2023-02-13T10:01:37.149Z,13.44
2023-02-13T10:04:29.275Z,13.44
2023-02-13T10:07:04.690Z,14.15
2023-02-13T10:09:54.938Z,14.24
2023-02-13T10:12:36.262Z,15.46
2023-02-13T10:15:10.305Z,15.74
2023-02-13T10:17:45.680Z,15.98
2023-02-13T10:20:29.977Z,16.93
2023-02-13T10:23:02.842Z,16.52
2023-02-13T10:25:38.087Z,15.90
2023-02-13T10:28:10.750Z,16.01
2023-02-13T10:30:46.797Z,16.37
2023-02-13T10:33:39.629Z,16.19
2023-02-13T10:36:10.093Z,17.50
2023-02-13T10:38:48.288Z,17.12
2023-02-13T10:41:23.893Z,17.86
2023-02-13T10:44:14.973Z,17.99
2023-02-13T10:47:10.748Z,17.32
2023-02-13T10:49:45.796Z,16.25
2023-02-13T10:52:20.851Z,16.69
2023-02-13T10:55:03.028Z,16.76
2023-02-13T10:57:38.479Z,16.14
2023-02-13T11:00:13.931Z,16.33
2023-02-13T11:02:43.129Z,15.69
2023-02-13T11:05:22.192Z,17.31
2023-02-13T11:07:51.761Z,15.94
2023-02-13T11:10:24.061Z,16.30
2023-02-13T11:12:53.426Z,15.18
2023-02-13T11:15:33.267Z,16.23
2023-02-13T11:18:05.970Z,17.32
2023-02-13T11:20:48.013Z,16.44
2023-02-13T11:23:35.443Z,16.44
2023-02-13T11:26:10.809Z,16.90
2023-02-13T11:28:58.159Z,17.29
2023-02-13T11:31:33.456Z,16.68
2023-02-13T11:34:22.716Z,17.50
2023-02-13T11:36:58.379Z,16.67
2023-02-13T11:39:28.216Z,17.73
2023-02-13T11:41:57.705Z,16.89
2023-02-13T11:44:29.505Z,17.49
2023-02-13T11:47:01.202Z,17.33
2023-02-13T11:49:35.510Z,17.99
2023-02-13T11:52:07.571Z,16.74
2023-02-13T11:54:46.593Z,16.37
2023-02-13T11:57:22.262Z,16.08
2023-02-13T11:59:54.123Z,16.77
2023-02-13T12:02:25.901Z,16.08
2023-02-13T12:04:58.736Z,16.15
2023-02-13T12:07:33.944Z,16.32
2023-02-13T12:10:06.382Z,17.48
2023-02-13T12:12:38.987Z,16.87
2023-02-13T12:15:23.744Z,15.51
2023-02-13T12:17:56.422Z,14.81
2023-02-13T12:20:27.441Z,15.60
2023-02-13T12:23:20.945Z,15.67
2023-02-13T12:26:15.049Z,15.55
2023-02-13T12:28:51.637Z,15.94
2023-02-13T12:31:45.184Z,15.20
2023-02-13T12:34:50.861Z,16.22
2023-02-13T12:37:38.806Z,16.05
2023-02-13T12:40:40.750Z,15.95
2023-02-13T12:43:31.320Z,15.54
2023-02-13T12:46:03.786Z,14.27
2023-02-13T12:48:34.159Z,14.74
2023-02-13T12:51:15.262Z,14.46
2023-02-13T12:53:50.329Z,15.26
2023-02-13T12:56:40.841Z,14.55
2023-02-13T12:59:18.868Z,14.64
2023-02-13T13:02:09.534Z,14.76
2023-02-13T13:05:05.064Z,14.97
2023-02-13T13:07:54.527Z,14.30
2023-02-13T13:10:27.005Z,14.36
2023-02-13T13:13:28.056Z,13.97
2023-02-13T13:16:03.275Z,13.35
2023-02-13T13:18:39.250Z,13.27
2023-02-13T13:21:29.762Z,13.45
2023-02-13T13:24:21.740Z,13.22
2023-02-13T13:26:53.396Z,13.38
2023-02-13T13:29:55.929Z,12.96
2023-02-13T13:32:25.811Z,12.89
2023-02-13T13:34:55.592Z,12.40
2023-02-13T13:37:40.016Z,12.22
2023-02-13T13:40:36.949Z,12.09
2023-02-13T13:43:27.375Z,11.93
2023-02-13T13:46:11.531Z,11.84
2023-02-13T13:48:44.028Z,11.61
2023-02-13T13:51:15.938Z,11.22
2023-02-13T13:54:09.311Z,11.27
2023-02-13T13:57:01.799Z,11.34
2023-02-13T13:59:50.632Z,11.18
2023-02-13T14:02:23.426Z,10.99
2023-02-13T14:05:22.899Z,10.90
2023-02-13T14:07:55.162Z,10.99
2023-02-13T14:10:30.334Z,10.96
2023-02-13T14:13:03.030Z,10.93
2023-02-13T14:15:42.643Z,10.95
2023-02-13T14:18:15.128Z,10.82
2023-02-13T14:20:52.559Z,10.78
2023-02-13T14:23:37.107Z,10.86
2023-02-13T14:26:18.392Z,10.74
2023-02-13T14:28:53.581Z,10.78
2023-02-13T14:31:34.794Z,10.84
2023-02-13T14:34:06.851Z,10.81
2023-02-13T14:36:42.001Z,10.89
2023-02-13T14:39:23.614Z,11.03
2023-02-13T14:41:56.303Z,11.03
2023-02-13T14:44:28.564Z,10.99
2023-02-13T14:46:57.977Z,11.08
2023-02-13T14:49:33.187Z,11.07
2023-02-13T14:52:07.451Z,11.25
2023-02-13T14:54:40.008Z,11.51
2023-02-13T14:57:12.531Z,11.66
2023-02-13T14:59:42.345Z,11.67
2023-02-13T15:02:23.469Z,11.57
2023-02-13T15:04:58.155Z,11.99
2023-02-13T15:07:30.704Z,12.12
2023-02-13T15:10:04.172Z,12.38
2023-02-13T15:12:36.112Z,12.32
2023-02-13T15:15:12.331Z,12.20
2023-02-13T15:17:41.689Z,12.11
2023-02-13T15:20:28.903Z,11.89
2023-02-13T15:22:58.699Z,11.64
2023-02-13T15:25:35.954Z,11.53
2023-02-13T15:28:09.954Z,11.25
2023-02-13T15:30:40.194Z,11.17
2023-02-13T15:33:18.245Z,11.49
2023-02-13T15:35:48.029Z,11.26
2023-02-13T15:38:23.991Z,10.95
2023-02-13T15:40:55.985Z,10.93
2023-02-13T15:43:34.161Z,10.77
2023-02-13T15:46:09.680Z,10.73
2023-02-13T15:48:39.188Z,10.54
2023-02-13T15:51:09.003Z,10.34
2023-02-13T15:53:38.405Z,10.34
2023-02-13T15:56:07.689Z,10.13
2023-02-13T15:58:37.418Z,10.08
2023-02-13T16:01:08.742Z,10.03
2023-02-13T16:03:38.823Z,9.98
2023-02-13T16:06:09.015Z,9.91
2023-02-13T16:08:41.576Z,9.77
2023-02-13T16:11:24.627Z,9.69
2023-02-13T16:14:16.796Z,9.62
2023-02-13T16:17:08.345Z,9.56
2023-02-13T16:19:58.765Z,9.47
2023-02-13T16:22:49.704Z,9.41
2023-02-13T16:25:22.187Z,9.36
2023-02-13T16:27:54.302Z,9.29
2023-02-13T16:30:33.782Z,9.22
2023-02-13T16:33:24.452Z,9.07
2023-02-13T16:35:59.463Z,8.98
2023-02-13T16:38:31.593Z,8.89
2023-02-13T16:41:03.571Z,8.79
2023-02-13T16:43:53.920Z,8.66
2023-02-13T16:46:37.288Z,8.50
2023-02-13T16:49:13.384Z,8.26
2023-02-13T16:51:45.773Z,8.03
2023-02-13T16:54:30.404Z,7.78
2023-02-13T16:57:05.305Z,7.68
2023-02-13T16:59:55.396Z,7.70
2023-02-13T17:02:30.100Z,7.66
2023-02-13T17:05:05.121Z,7.86
2023-02-13T17:07:40.100Z,7.77
2023-02-13T17:10:12.648Z,7.60
2023-02-13T17:12:41.448Z,7.30
2023-02-13T17:15:13.808Z,7.16
2023-02-13T17:17:43.158Z,6.96
2023-02-13T17:20:17.983Z,6.71
2023-02-13T17:22:50.643Z,6.59
2023-02-13T17:25:23.281Z,6.52
2023-02-13T17:27:54.793Z,6.56
2023-02-13T17:30:27.583Z,6.39
2023-02-13T17:33:02.849Z,6.30
2023-02-13T17:35:32.350Z,6.08
2023-02-13T17:38:01.813Z,5.85
2023-02-13T17:40:32.047Z,5.70
2023-02-13T17:43:02.249Z,5.64
2023-02-13T17:45:34.017Z,5.60
2023-02-13T17:48:04.241Z,5.51
2023-02-13T17:50:34.960Z,5.47
2023-02-13T17:53:06.623Z,5.35
2023-02-13T17:55:36.579Z,5.27
2023-02-13T17:58:05.999Z,5.22
2023-02-13T18:00:35.685Z,5.16
2023-02-13T18:03:05.280Z,5.07
2023-02-13T18:05:34.586Z,4.96
2023-02-13T18:08:03.988Z,4.85
2023-02-13T18:10:35.655Z,4.80
2023-02-13T18:13:05.808Z,4.69
2023-02-13T18:15:37.386Z,4.62
2023-02-13T18:18:07.527Z,4.53
2023-02-13T18:20:36.962Z,4.49
2023-02-13T18:23:07.209Z,4.52
2023-02-13T18:25:38.259Z,4.54
2023-02-13T18:28:07.716Z,4.48
2023-02-13T18:30:37.428Z,4.42
2023-02-13T18:33:07.286Z,4.39
2023-02-13T18:35:38.526Z,4.38
2023-02-13T18:38:08.389Z,4.30
2023-02-13T18:40:37.875Z,4.27
2023-02-13T18:43:07.211Z,4.19
2023-02-13T18:45:37.452Z,4.13
2023-02-13T18:48:09.309Z,4.14
2023-02-13T18:50:40.941Z,4.14
2023-02-13T18:53:10.725Z,4.03
2023-02-13T18:55:40.380Z,4.05
2023-02-13T18:58:10.248Z,3.93
2023-02-13T19:00:39.571Z,3.94
2023-02-13T19:03:09.047Z,3.91
2023-02-13T19:05:42.457Z,3.96
2023-02-13T19:08:11.767Z,4.01
2023-02-13T19:10:41.195Z,4.12
2023-02-13T19:13:10.851Z,4.37
2023-02-13T19:15:40.140Z,4.38
2023-02-13T19:18:09.833Z,4.37
2023-02-13T19:20:40.726Z,4.23
2023-02-13T19:23:10.506Z,4.15
2023-02-13T19:25:40.011Z,4.03
2023-02-13T19:28:09.363Z,4.05
2023-02-13T19:30:38.976Z,3.97
2023-02-13T19:33:08.416Z,4.01
2023-02-13T19:35:38.101Z,3.94
2023-02-13T19:38:07.420Z,3.91
2023-02-13T19:40:36.956Z,3.88
2023-02-13T19:43:06.260Z,3.83
2023-02-13T19:45:35.793Z,3.75
2023-02-13T19:48:05.112Z,3.67
2023-02-13T19:50:34.554Z,3.63
2023-02-13T19:53:05.495Z,3.66
2023-02-13T19:55:35.758Z,3.65
2023-02-13T19:58:05.600Z,3.59
2023-02-13T20:00:34.980Z,3.55
2023-02-13T20:03:05.066Z,3.44
2023-02-13T20:05:42.122Z,3.29
2023-02-13T20:08:12.755Z,3.16
2023-02-13T20:10:46.676Z,3.20
2023-02-13T20:13:16.460Z,3.23
2023-02-13T20:15:46.303Z,3.34
2023-02-13T20:18:17.232Z,3.23
2023-02-13T20:20:47.270Z,3.12
2023-02-13T20:23:17.921Z,3.09
2023-02-13T20:25:47.311Z,3.02
2023-02-13T20:28:17.513Z,3.04
2023-02-13T20:30:47.206Z,2.97
2023-02-13T20:33:16.973Z,2.77
2023-02-13T20:35:46.650Z,2.60
2023-02-13T20:38:16.696Z,2.52
2023-02-13T20:40:46.020Z,2.46
2023-02-13T20:43:15.405Z,2.47
2023-02-13T20:45:44.783Z,2.54
2023-02-13T20:48:14.369Z,2.56
2023-02-13T20:50:43.959Z,2.58
2023-02-13T20:53:13.302Z,2.67
2023-02-13T20:55:43.010Z,2.74
2023-02-13T20:58:12.684Z,2.75
2023-02-13T21:00:42.215Z,2.80
2023-02-13T21:03:11.585Z,2.74
2023-02-13T21:05:41.997Z,2.61
2023-02-13T21:08:11.950Z,2.69
2023-02-13T21:10:41.342Z,2.56
2023-02-13T21:13:10.807Z,2.58
2023-02-13T21:15:40.512Z,2.28
2023-02-13T21:18:10.009Z,2.31
2023-02-13T21:20:39.306Z,2.36
2023-02-13T21:23:08.607Z,2.22
2023-02-13T21:25:37.985Z,2.16
2023-02-13T21:28:07.580Z,2.05
2023-02-13T21:30:38.235Z,2.06
2023-02-13T21:33:07.791Z,2.00
2023-02-13T21:35:37.295Z,1.98
2023-02-13T21:38:06.939Z,1.98
2023-02-13T21:40:36.290Z,1.95
2023-02-13T21:43:05.951Z,1.91
2023-02-13T21:45:35.306Z,1.83
2023-02-13T21:48:04.984Z,1.78
2023-02-13T21:50:34.249Z,1.82
2023-02-13T21:53:03.788Z,1.72
2023-02-13T21:55:33.395Z,1.66
2023-02-13T21:58:02.850Z,1.68
2023-02-13T22:00:32.183Z,1.62
2023-02-13T22:03:03.145Z,1.58
2023-02-13T22:05:32.702Z,1.62
2023-02-13T22:08:12.757Z,1.53
2023-02-13T22:10:43.080Z,1.46
2023-02-13T22:13:15.971Z,1.48
2023-02-13T22:15:46.747Z,1.47
2023-02-13T22:18:16.652Z,1.46
2023-02-13T22:20:49.995Z,1.47
2023-02-13T22:23:20.396Z,1.59
2023-02-13T22:25:51.165Z,1.66
2023-02-13T22:28:20.716Z,1.67
2023-02-13T22:30:51.708Z,1.64
2023-02-13T22:33:21.550Z,1.58
2023-02-13T22:35:51.238Z,1.56
2023-02-13T22:38:21.089Z,1.53
2023-02-13T22:40:50.854Z,1.51
2023-02-13T22:43:20.080Z,1.51
2023-02-13T22:45:49.373Z,1.52
2023-02-13T22:48:18.624Z,1.44
2023-02-13T22:50:48.177Z,1.43
2023-02-13T22:53:17.779Z,1.35
2023-02-13T22:55:47.376Z,1.30
2023-02-13T22:58:16.643Z,1.27
2023-02-13T23:00:45.986Z,1.32
2023-02-13T23:03:15.537Z,1.27
2023-02-13T23:05:44.850Z,1.25
2023-02-13T23:08:14.239Z,1.21
2023-02-13T23:10:46.401Z,1.24
2023-02-13T23:13:15.674Z,1.32
2023-02-13T23:15:46.583Z,1.20
2023-02-13T23:18:17.511Z,1.20
2023-02-13T23:20:47.183Z,1.22
2023-02-13T23:23:16.519Z,1.22
2023-02-13T23:25:46.057Z,1.13
2023-02-13T23:28:15.288Z,1.09
2023-02-13T23:30:45.150Z,1.04
2023-02-13T23:33:14.524Z,1.00
2023-02-13T23:35:43.981Z,1.00
2023-02-13T23:38:13.242Z,0.96
2023-02-13T23:40:42.491Z,0.93
2023-02-13T23:43:11.729Z,0.97
2023-02-13T23:45:41.082Z,0.96
2023-02-13T23:48:11.842Z,0.98
2023-02-13T23:50:41.547Z,0.97
2023-02-13T23:53:11.183Z,0.93
2023-02-13T23:55:40.616Z,0.89
2023-02-13T23:58:10.032Z,0.85
